sensor_id;sensor_type;location;lat;lon;timestamp;P1;durP1;ratioP1;P2;durP2;ratioP2
12869;SDS011;6503;48.572;13.460;2023-07-24T00:00:54;14.10;;;7.70;;
12869;SDS011;6503;48.572;13.460;2023-07-24T00:03:23;12.57;;;7.30;;
12869;SDS011;6503;48.572;13.460;2023-07-24T00:05:50;13.57;;;7.57;;
12869;SDS011;6503;48.572;13.460;2023-07-24T00:08:19;12.60;;;7.23;;
12869;SDS011;6503;48.572;13.460;2023-07-24T00:10:47;14.18;;;7.22;;
12869;SDS011;6503;48.572;13.460;2023-07-24T00:13:14;12.05;;;7.38;;
12869;SDS011;6503;48.572;13.460;2023-07-24T00:15:42;12.88;;;7.38;;
12869;SDS011;6503;48.572;13.460;2023-07-24T00:18:09;11.88;;;7.10;;
12869;SDS011;6503;48.572;13.460;2023-07-24T00:20:39;12.93;;;7.22;;
12869;SDS011;6503;48.572;13.460;2023-07-24T00:23:06;12.38;;;7.38;;
12869;SDS011;6503;48.572;13.460;2023-07-24T00:25:34;12.73;;;7.45;;
12869;SDS011;6503;48.572;13.460;2023-07-24T00:28:02;12.25;;;6.95;;
12869;SDS011;6503;48.572;13.460;2023-07-24T00:30:29;12.25;;;7.10;;
12869;SDS011;6503;48.572;13.460;2023-07-24T00:32:57;13.43;;;8.07;;
12869;SDS011;6503;48.572;13.460;2023-07-24T00:35:25;14.10;;;7.78;;
12869;SDS011;6503;48.572;13.460;2023-07-24T00:37:54;13.00;;;7.50;;
12869;SDS011;6503;48.572;13.460;2023-07-24T00:40:22;13.23;;;8.15;;
12869;SDS011;6503;48.572;13.460;2023-07-24T00:42:49;12.38;;;7.55;;
12869;SDS011;6503;48.572;13.460;2023-07-24T00:45:17;14.80;;;7.90;;
12869;SDS011;6503;48.572;13.460;2023-07-24T00:47:44;11.18;;;7.07;;
12869;SDS011;6503;48.572;13.460;2023-07-24T00:50:12;13.77;;;8.15;;
12869;SDS011;6503;48.572;13.460;2023-07-24T00:52:40;13.65;;;7.85;;
12869;SDS011;6503;48.572;13.460;2023-07-24T00:55:09;12.48;;;7.82;;
12869;SDS011;6503;48.572;13.460;2023-07-24T00:57:37;11.88;;;7.80;;
12869;SDS011;6503;48.572;13.460;2023-07-24T01:00:06;15.65;;;7.60;;
12869;SDS011;6503;48.572;13.460;2023-07-24T01:02:34;13.18;;;7.03;;
12869;SDS011;6503;48.572;13.460;2023-07-24T01:05:02;11.65;;;7.00;;
12869;SDS011;6503;48.572;13.460;2023-07-24T01:07:32;12.55;;;7.43;;
12869;SDS011;6503;48.572;13.460;2023-07-24T01:10:00;13.50;;;7.82;;
12869;SDS011;6503;48.572;13.460;2023-07-24T01:12:31;14.02;;;7.65;;
12869;SDS011;6503;48.572;13.460;2023-07-24T01:15:03;12.20;;;7.45;;
12869;SDS011;6503;48.572;13.460;2023-07-24T01:17:33;11.90;;;7.45;;
12869;SDS011;6503;48.572;13.460;2023-07-24T01:20:03;13.05;;;7.88;;
12869;SDS011;6503;48.572;13.460;2023-07-24T01:22:32;13.93;;;8.02;;
12869;SDS011;6503;48.572;13.460;2023-07-24T01:25:09;12.95;;;7.65;;
12869;SDS011;6503;48.572;13.460;2023-07-24T01:27:42;11.05;;;7.25;;
12869;SDS011;6503;48.572;13.460;2023-07-24T01:30:10;12.85;;;8.43;;
12869;SDS011;6503;48.572;13.460;2023-07-24T01:32:37;11.45;;;7.22;;
12869;SDS011;6503;48.572;13.460;2023-07-24T01:35:07;13.88;;;8.07;;
12869;SDS011;6503;48.572;13.460;2023-07-24T01:37:35;14.60;;;7.53;;
12869;SDS011;6503;48.572;13.460;2023-07-24T01:40:06;13.15;;;7.10;;
12869;SDS011;6503;48.572;13.460;2023-07-24T01:42:34;12.50;;;7.38;;
12869;SDS011;6503;48.572;13.460;2023-07-24T01:45:04;13.55;;;7.15;;
12869;SDS011;6503;48.572;13.460;2023-07-24T01:47:32;12.13;;;7.60;;
12869;SDS011;6503;48.572;13.460;2023-07-24T01:49:59;14.15;;;7.40;;
12869;SDS011;6503;48.572;13.460;2023-07-24T01:52:27;13.50;;;7.93;;
12869;SDS011;6503;48.572;13.460;2023-07-24T01:54:54;21.02;;;8.73;;
12869;SDS011;6503;48.572;13.460;2023-07-24T01:57:22;14.43;;;7.68;;
12869;SDS011;6503;48.572;13.460;2023-07-24T01:59:50;12.68;;;7.50;;
12869;SDS011;6503;48.572;13.460;2023-07-24T02:02:19;14.80;;;8.13;;
12869;SDS011;6503;48.572;13.460;2023-07-24T02:04:47;12.00;;;7.53;;
12869;SDS011;6503;48.572;13.460;2023-07-24T02:07:14;14.20;;;7.78;;
12869;SDS011;6503;48.572;13.460;2023-07-24T02:09:42;12.85;;;7.75;;
12869;SDS011;6503;48.572;13.460;2023-07-24T02:12:10;11.35;;;7.40;;
12869;SDS011;6503;48.572;13.460;2023-07-24T02:14:37;12.82;;;7.50;;
12869;SDS011;6503;48.572;13.460;2023-07-24T02:17:08;13.52;;;8.23;;
12869;SDS011;6503;48.572;13.460;2023-07-24T02:19:37;12.35;;;7.30;;
12869;SDS011;6503;48.572;13.460;2023-07-24T02:22:12;13.10;;;7.40;;
12869;SDS011;6503;48.572;13.460;2023-07-24T02:24:39;15.43;;;8.13;;
12869;SDS011;6503;48.572;13.460;2023-07-24T02:27:11;12.40;;;7.60;;
12869;SDS011;6503;48.572;13.460;2023-07-24T02:29:39;14.85;;;7.95;;
12869;SDS011;6503;48.572;13.460;2023-07-24T02:32:07;11.77;;;7.03;;
12869;SDS011;6503;48.572;13.460;2023-07-24T02:34:35;12.15;;;7.85;;
12869;SDS011;6503;48.572;13.460;2023-07-24T02:37:07;13.05;;;7.80;;
12869;SDS011;6503;48.572;13.460;2023-07-24T02:39:35;13.57;;;8.20;;
12869;SDS011;6503;48.572;13.460;2023-07-24T02:42:03;14.63;;;8.10;;
12869;SDS011;6503;48.572;13.460;2023-07-24T02:44:32;12.43;;;7.60;;
12869;SDS011;6503;48.572;13.460;2023-07-24T02:47:00;13.70;;;7.95;;
12869;SDS011;6503;48.572;13.460;2023-07-24T02:49:30;14.93;;;7.63;;
12869;SDS011;6503;48.572;13.460;2023-07-24T02:52:00;13.98;;;8.10;;
12869;SDS011;6503;48.572;13.460;2023-07-24T02:54:35;13.07;;;7.55;;
12869;SDS011;6503;48.572;13.460;2023-07-24T02:57:05;11.75;;;7.95;;
12869;SDS011;6503;48.572;13.460;2023-07-24T02:59:32;15.95;;;7.88;;
12869;SDS011;6503;48.572;13.460;2023-07-24T03:02:00;14.57;;;8.52;;
12869;SDS011;6503;48.572;13.460;2023-07-24T03:04:28;13.95;;;7.63;;
12869;SDS011;6503;48.572;13.460;2023-07-24T03:06:56;15.10;;;7.60;;
12869;SDS011;6503;48.572;13.460;2023-07-24T03:09:24;15.45;;;7.57;;
12869;SDS011;6503;48.572;13.460;2023-07-24T03:11:53;13.63;;;7.85;;
12869;SDS011;6503;48.572;13.460;2023-07-24T03:14:20;14.13;;;7.63;;
12869;SDS011;6503;48.572;13.460;2023-07-24T03:16:48;14.23;;;8.20;;
12869;SDS011;6503;48.572;13.460;2023-07-24T03:19:15;12.88;;;7.22;;
12869;SDS011;6503;48.572;13.460;2023-07-24T03:21:45;14.27;;;8.18;;
12869;SDS011;6503;48.572;13.460;2023-07-24T03:24:12;15.02;;;8.52;;
12869;SDS011;6503;48.572;13.460;2023-07-24T03:26:40;12.68;;;7.57;;
12869;SDS011;6503;48.572;13.460;2023-07-24T03:29:09;13.45;;;7.72;;
12869;SDS011;6503;48.572;13.460;2023-07-24T03:31:37;14.30;;;8.00;;
12869;SDS011;6503;48.572;13.460;2023-07-24T03:34:04;13.05;;;7.72;;
12869;SDS011;6503;48.572;13.460;2023-07-24T03:36:44;12.48;;;7.55;;
12869;SDS011;6503;48.572;13.460;2023-07-24T03:39:20;18.80;;;9.55;;
12869;SDS011;6503;48.572;13.460;2023-07-24T03:41:47;30.23;;;9.50;;
12869;SDS011;6503;48.572;13.460;2023-07-24T03:44:17;16.42;;;8.73;;
12869;SDS011;6503;48.572;13.460;2023-07-24T03:46:44;15.98;;;7.82;;
12869;SDS011;6503;48.572;13.460;2023-07-24T03:49:12;12.80;;;7.57;;
12869;SDS011;6503;48.572;13.460;2023-07-24T03:51:41;14.40;;;7.65;;
12869;SDS011;6503;48.572;13.460;2023-07-24T03:54:09;15.27;;;7.40;;
12869;SDS011;6503;48.572;13.460;2023-07-24T03:56:37;13.35;;;7.82;;
12869;SDS011;6503;48.572;13.460;2023-07-24T04:05:13;15.38;;;8.02;;
12869;SDS011;6503;48.572;13.460;2023-07-24T04:07:48;15.68;;;8.77;;
12869;SDS011;6503;48.572;13.460;2023-07-24T04:10:35;13.85;;;8.23;;
12869;SDS011;6503;48.572;13.460;2023-07-24T04:15:50;16.48;;;7.68;;
12869;SDS011;6503;48.572;13.460;2023-07-24T04:18:17;12.00;;;7.68;;
12869;SDS011;6503;48.572;13.460;2023-07-24T04:29:26;12.35;;;7.50;;
12869;SDS011;6503;48.572;13.460;2023-07-24T04:31:54;11.75;;;7.32;;
12869;SDS011;6503;48.572;13.460;2023-07-24T04:37:30;15.15;;;8.30;;
12869;SDS011;6503;48.572;13.460;2023-07-24T04:40:12;17.27;;;8.90;;
12869;SDS011;6503;48.572;13.460;2023-07-24T04:42:39;13.65;;;8.20;;
12869;SDS011;6503;48.572;13.460;2023-07-24T04:48:16;15.07;;;8.25;;
12869;SDS011;6503;48.572;13.460;2023-07-24T04:50:58;14.95;;;7.68;;
12869;SDS011;6503;48.572;13.460;2023-07-24T04:53:33;15.77;;;7.53;;
12869;SDS011;6503;48.572;13.460;2023-07-24T04:56:01;14.45;;;8.50;;
12869;SDS011;6503;48.572;13.460;2023-07-24T04:58:56;16.13;;;8.48;;
12869;SDS011;6503;48.572;13.460;2023-07-24T05:01:43;14.50;;;8.27;;
12869;SDS011;6503;48.572;13.460;2023-07-24T05:25:55;17.45;;;7.68;;
12869;SDS011;6503;48.572;13.460;2023-07-24T05:28:36;11.93;;;7.40;;
12869;SDS011;6503;48.572;13.460;2023-07-24T05:34:19;14.30;;;7.32;;
12869;SDS011;6503;48.572;13.460;2023-07-24T05:37:00;13.18;;;7.50;;
12869;SDS011;6503;48.572;13.460;2023-07-24T06:40:12;13.23;;;7.60;;
12869;SDS011;6503;48.572;13.460;2023-07-24T06:43:12;12.43;;;7.10;;
12869;SDS011;6503;48.572;13.460;2023-07-24T06:46:02;13.13;;;7.00;;
12869;SDS011;6503;48.572;13.460;2023-07-24T06:48:37;10.57;;;7.13;;
12869;SDS011;6503;48.572;13.460;2023-07-24T06:53:57;12.23;;;7.20;;
12869;SDS011;6503;48.572;13.460;2023-07-24T07:03:22;12.57;;;7.20;;
12869;SDS011;6503;48.572;13.460;2023-07-24T07:06:16;11.60;;;6.82;;
12869;SDS011;6503;48.572;13.460;2023-07-24T07:09:00;12.07;;;6.90;;
12869;SDS011;6503;48.572;13.460;2023-07-24T07:11:41;12.63;;;7.05;;
12869;SDS011;6503;48.572;13.460;2023-07-24T07:14:22;13.73;;;7.07;;
12869;SDS011;6503;48.572;13.460;2023-07-24T07:17:05;11.88;;;7.75;;
12869;SDS011;6503;48.572;13.460;2023-07-24T07:20:04;12.57;;;6.80;;
12869;SDS011;6503;48.572;13.460;2023-07-24T07:22:46;11.10;;;6.65;;
12869;SDS011;6503;48.572;13.460;2023-07-24T07:25:27;13.60;;;6.93;;
12869;SDS011;6503;48.572;13.460;2023-07-24T07:28:11;15.35;;;7.20;;
12869;SDS011;6503;48.572;13.460;2023-07-24T07:30:39;12.90;;;7.35;;
12869;SDS011;6503;48.572;13.460;2023-07-24T07:33:20;15.68;;;7.25;;
12869;SDS011;6503;48.572;13.460;2023-07-24T07:35:56;12.73;;;7.15;;
12869;SDS011;6503;48.572;13.460;2023-07-24T07:38:37;25.75;;;7.78;;
12869;SDS011;6503;48.572;13.460;2023-07-24T07:41:20;13.07;;;7.55;;
12869;SDS011;6503;48.572;13.460;2023-07-24T07:44:36;13.52;;;6.70;;
12869;SDS011;6503;48.572;13.460;2023-07-24T07:47:20;11.43;;;6.93;;
12869;SDS011;6503;48.572;13.460;2023-07-24T07:53:09;14.50;;;7.13;;
12869;SDS011;6503;48.572;13.460;2023-07-24T07:55:42;12.50;;;7.05;;
12869;SDS011;6503;48.572;13.460;2023-07-24T07:58:19;12.55;;;6.97;;
12869;SDS011;6503;48.572;13.460;2023-07-24T08:01:10;12.07;;;6.45;;
12869;SDS011;6503;48.572;13.460;2023-07-24T08:04:15;11.48;;;6.93;;
12869;SDS011;6503;48.572;13.460;2023-07-24T08:07:08;11.60;;;7.00;;
12869;SDS011;6503;48.572;13.460;2023-07-24T08:10:13;9.32;;;6.40;;
12869;SDS011;6503;48.572;13.460;2023-07-24T08:12:49;10.18;;;6.00;;
12869;SDS011;6503;48.572;13.460;2023-07-24T08:15:54;12.80;;;6.57;;
12869;SDS011;6503;48.572;13.460;2023-07-24T08:18:51;9.27;;;6.53;;
12869;SDS011;6503;48.572;13.460;2023-07-24T08:21:38;10.10;;;6.65;;
12869;SDS011;6503;48.572;13.460;2023-07-24T08:42:46;11.40;;;7.07;;
12869;SDS011;6503;48.572;13.460;2023-07-24T08:48:12;9.93;;;5.85;;
12869;SDS011;6503;48.572;13.460;2023-07-24T08:54:00;9.05;;;5.93;;
12869;SDS011;6503;48.572;13.460;2023-07-24T08:56:50;10.77;;;6.00;;
12869;SDS011;6503;48.572;13.460;2023-07-24T09:02:40;9.88;;;6.05;;
12869;SDS011;6503;48.572;13.460;2023-07-24T09:05:24;8.38;;;5.72;;
12869;SDS011;6503;48.572;13.460;2023-07-24T09:08:32;10.02;;;6.40;;
12869;SDS011;6503;48.572;13.460;2023-07-24T09:11:13;9.85;;;6.25;;
12869;SDS011;6503;48.572;13.460;2023-07-24T09:13:47;9.82;;;6.30;;
12869;SDS011;6503;48.572;13.460;2023-07-24T09:19:25;9.15;;;5.90;;
12869;SDS011;6503;48.572;13.460;2023-07-24T09:19:56;10.60;;;6.43;;
12869;SDS011;6503;48.572;13.460;2023-07-24T09:22:52;12.50;;;6.85;;
12869;SDS011;6503;48.572;13.460;2023-07-24T09:25:35;11.90;;;6.45;;
12869;SDS011;6503;48.572;13.460;2023-07-24T09:28:20;13.38;;;7.20;;
12869;SDS011;6503;48.572;13.460;2023-07-24T09:34:16;8.73;;;5.97;;
12869;SDS011;6503;48.572;13.460;2023-07-24T09:52:17;10.57;;;7.47;;
12869;SDS011;6503;48.572;13.460;2023-07-24T09:54:55;10.65;;;6.30;;
12869;SDS011;6503;48.572;13.460;2023-07-24T09:57:45;12.00;;;6.55;;
12869;SDS011;6503;48.572;13.460;2023-07-24T10:00:20;11.05;;;6.45;;
12869;SDS011;6503;48.572;13.460;2023-07-24T10:03:08;10.80;;;6.75;;
12869;SDS011;6503;48.572;13.460;2023-07-24T10:23:40;9.10;;;5.53;;
12869;SDS011;6503;48.572;13.460;2023-07-24T10:26:23;9.07;;;5.38;;
12869;SDS011;6503;48.572;13.460;2023-07-24T10:28:56;8.07;;;5.20;;
12869;SDS011;6503;48.572;13.460;2023-07-24T11:04:33;7.60;;;5.65;;
12869;SDS011;6503;48.572;13.460;2023-07-24T11:07:32;9.82;;;5.68;;
12869;SDS011;6503;48.572;13.460;2023-07-24T11:10:23;7.85;;;5.00;;
12869;SDS011;6503;48.572;13.460;2023-07-24T11:13:20;8.73;;;5.35;;
12869;SDS011;6503;48.572;13.460;2023-07-24T11:19:09;7.03;;;5.18;;
12869;SDS011;6503;48.572;13.460;2023-07-24T11:24:13;8.55;;;5.50;;
12869;SDS011;6503;48.572;13.460;2023-07-24T11:26:57;10.32;;;5.75;;
12869;SDS011;6503;48.572;13.460;2023-07-24T11:32:49;11.13;;;5.60;;
12869;SDS011;6503;48.572;13.460;2023-07-24T11:38:40;9.68;;;5.75;;
12869;SDS011;6503;48.572;13.460;2023-07-24T11:52:49;7.70;;;5.35;;
12869;SDS011;6503;48.572;13.460;2023-07-24T11:55:30;9.13;;;5.07;;
12869;SDS011;6503;48.572;13.460;2023-07-24T12:46:50;7.13;;;5.10;;
12869;SDS011;6503;48.572;13.460;2023-07-24T12:52:38;5.93;;;4.28;;
12869;SDS011;6503;48.572;13.460;2023-07-24T12:55:27;7.32;;;4.65;;
12869;SDS011;6503;48.572;13.460;2023-07-24T12:58:17;7.80;;;5.07;;
12869;SDS011;6503;48.572;13.460;2023-07-24T13:01:01;7.05;;;4.82;;
12869;SDS011;6503;48.572;13.460;2023-07-24T13:03:49;6.22;;;4.72;;
12869;SDS011;6503;48.572;13.460;2023-07-24T13:06:36;7.75;;;4.78;;
12869;SDS011;6503;48.572;13.460;2023-07-24T13:09:09;6.30;;;4.43;;
12869;SDS011;6503;48.572;13.460;2023-07-24T13:11:53;7.40;;;4.85;;
12869;SDS011;6503;48.572;13.460;2023-07-24T13:14:51;7.55;;;5.55;;
12869;SDS011;6503;48.572;13.460;2023-07-24T13:17:39;6.28;;;4.55;;
12869;SDS011;6503;48.572;13.460;2023-07-24T13:23:24;9.07;;;5.30;;
12869;SDS011;6503;48.572;13.460;2023-07-24T13:29:05;7.68;;;4.88;;
12869;SDS011;6503;48.572;13.460;2023-07-24T13:31:36;5.57;;;4.53;;
12869;SDS011;6503;48.572;13.460;2023-07-24T13:34:48;6.07;;;4.20;;
12869;SDS011;6503;48.572;13.460;2023-07-24T13:37:33;6.13;;;4.30;;
12869;SDS011;6503;48.572;13.460;2023-07-24T13:46:46;5.20;;;4.10;;
12869;SDS011;6503;48.572;13.460;2023-07-24T13:49:37;5.68;;;4.07;;
12869;SDS011;6503;48.572;13.460;2023-07-24T13:55:07;8.95;;;5.30;;
12869;SDS011;6503;48.572;13.460;2023-07-24T13:57:51;6.63;;;4.43;;
12869;SDS011;6503;48.572;13.460;2023-07-24T14:00:24;7.03;;;4.85;;
12869;SDS011;6503;48.572;13.460;2023-07-24T14:03:12;6.95;;;4.53;;
12869;SDS011;6503;48.572;13.460;2023-07-24T14:06:06;8.07;;;4.45;;
12869;SDS011;6503;48.572;13.460;2023-07-24T14:08:56;5.65;;;4.22;;
12869;SDS011;6503;48.572;13.460;2023-07-24T14:17:54;7.28;;;4.57;;
12869;SDS011;6503;48.572;13.460;2023-07-24T14:26:42;6.97;;;4.50;;
12869;SDS011;6503;48.572;13.460;2023-07-24T14:29:23;7.03;;;4.22;;
12869;SDS011;6503;48.572;13.460;2023-07-24T14:32:11;9.23;;;4.53;;
12869;SDS011;6503;48.572;13.460;2023-07-24T14:38:05;8.27;;;4.60;;
12869;SDS011;6503;48.572;13.460;2023-07-24T14:41:08;8.10;;;4.70;;
12869;SDS011;6503;48.572;13.460;2023-07-24T14:46:31;7.78;;;4.55;;
12869;SDS011;6503;48.572;13.460;2023-07-24T14:49:28;11.23;;;4.68;;
12869;SDS011;6503;48.572;13.460;2023-07-24T14:52:18;8.50;;;5.07;;
12869;SDS011;6503;48.572;13.460;2023-07-24T14:55:11;9.02;;;4.80;;
12869;SDS011;6503;48.572;13.460;2023-07-24T15:25:43;10.20;;;5.32;;
12869;SDS011;6503;48.572;13.460;2023-07-24T15:31:33;7.80;;;5.40;;
12869;SDS011;6503;48.572;13.460;2023-07-24T15:34:06;6.80;;;4.85;;
12869;SDS011;6503;48.572;13.460;2023-07-24T15:37:47;7.47;;;4.80;;
12869;SDS011;6503;48.572;13.460;2023-07-24T15:40:26;7.88;;;5.40;;
12869;SDS011;6503;48.572;13.460;2023-07-24T15:43:07;8.55;;;5.55;;
12869;SDS011;6503;48.572;13.460;2023-07-24T15:51:52;9.07;;;5.70;;
12869;SDS011;6503;48.572;13.460;2023-07-24T15:54:33;7.00;;;4.90;;
12869;SDS011;6503;48.572;13.460;2023-07-24T15:57:12;9.27;;;4.82;;
12869;SDS011;6503;48.572;13.460;2023-07-24T16:00:10;9.05;;;4.60;;
12869;SDS011;6503;48.572;13.460;2023-07-24T16:02:42;6.88;;;4.50;;
12869;SDS011;6503;48.572;13.460;2023-07-24T16:05:23;9.05;;;6.28;;
12869;SDS011;6503;48.572;13.460;2023-07-24T16:08:10;6.40;;;4.57;;
12869;SDS011;6503;48.572;13.460;2023-07-24T16:14:08;9.93;;;4.65;;
12869;SDS011;6503;48.572;13.460;2023-07-24T16:19:50;8.23;;;4.90;;
12869;SDS011;6503;48.572;13.460;2023-07-24T16:22:17;6.32;;;4.80;;
12869;SDS011;6503;48.572;13.460;2023-07-24T16:24:48;8.40;;;4.53;;
12869;SDS011;6503;48.572;13.460;2023-07-24T16:27:30;6.18;;;4.28;;
12869;SDS011;6503;48.572;13.460;2023-07-24T16:29:58;9.15;;;4.55;;
12869;SDS011;6503;48.572;13.460;2023-07-24T16:32:26;7.97;;;4.72;;
12869;SDS011;6503;48.572;13.460;2023-07-24T16:35:09;6.72;;;4.68;;
12869;SDS011;6503;48.572;13.460;2023-07-24T16:37:53;7.13;;;4.57;;
12869;SDS011;6503;48.572;13.460;2023-07-24T16:40:20;7.90;;;4.47;;
12869;SDS011;6503;48.572;13.460;2023-07-24T16:43:04;7.72;;;4.82;;
12869;SDS011;6503;48.572;13.460;2023-07-24T16:45:32;8.98;;;4.93;;
12869;SDS011;6503;48.572;13.460;2023-07-24T16:48:05;6.93;;;4.30;;
12869;SDS011;6503;48.572;13.460;2023-07-24T16:50:54;8.63;;;3.83;;
12869;SDS011;6503;48.572;13.460;2023-07-24T16:53:22;7.28;;;4.38;;
12869;SDS011;6503;48.572;13.460;2023-07-24T16:55:55;7.57;;;4.80;;
12869;SDS011;6503;48.572;13.460;2023-07-24T16:58:42;6.90;;;4.15;;
12869;SDS011;6503;48.572;13.460;2023-07-24T17:01:19;7.72;;;4.68;;
12869;SDS011;6503;48.572;13.460;2023-07-24T17:03:53;8.20;;;4.95;;
12869;SDS011;6503;48.572;13.460;2023-07-24T17:06:24;8.30;;;5.25;;
12869;SDS011;6503;48.572;13.460;2023-07-24T17:08:51;7.05;;;4.80;;
12869;SDS011;6503;48.572;13.460;2023-07-24T17:11:19;6.63;;;4.32;;
12869;SDS011;6503;48.572;13.460;2023-07-24T17:13:49;7.07;;;4.65;;
12869;SDS011;6503;48.572;13.460;2023-07-24T17:16:44;8.20;;;5.10;;
12869;SDS011;6503;48.572;13.460;2023-07-24T17:19:11;7.57;;;4.80;;
12869;SDS011;6503;48.572;13.460;2023-07-24T17:21:47;5.60;;;4.57;;
12869;SDS011;6503;48.572;13.460;2023-07-24T17:24:16;6.80;;;4.47;;
12869;SDS011;6503;48.572;13.460;2023-07-24T17:26:52;7.45;;;4.78;;
12869;SDS011;6503;48.572;13.460;2023-07-24T17:29:19;9.85;;;4.90;;
12869;SDS011;6503;48.572;13.460;2023-07-24T17:31:57;6.78;;;4.40;;
12869;SDS011;6503;48.572;13.460;2023-07-24T17:34:31;7.35;;;4.75;;
12869;SDS011;6503;48.572;13.460;2023-07-24T17:37:06;7.18;;;4.20;;
12869;SDS011;6503;48.572;13.460;2023-07-24T17:39:36;5.60;;;4.05;;
12869;SDS011;6503;48.572;13.460;2023-07-24T17:42:05;7.95;;;4.68;;
12869;SDS011;6503;48.572;13.460;2023-07-24T17:44:37;6.85;;;4.03;;
12869;SDS011;6503;48.572;13.460;2023-07-24T17:47:28;5.80;;;3.80;;
12869;SDS011;6503;48.572;13.460;2023-07-24T17:49:59;7.22;;;4.40;;
12869;SDS011;6503;48.572;13.460;2023-07-24T17:58:36;7.07;;;4.25;;
12869;SDS011;6503;48.572;13.460;2023-07-24T18:01:20;7.60;;;4.35;;
12869;SDS011;6503;48.572;13.460;2023-07-24T18:03:48;6.90;;;4.65;;
12869;SDS011;6503;48.572;13.460;2023-07-24T18:06:15;6.57;;;4.43;;
12869;SDS011;6503;48.572;13.460;2023-07-24T18:14:26;11.63;;;4.70;;
12869;SDS011;6503;48.572;13.460;2023-07-24T18:14:47;6.65;;;4.32;;
12869;SDS011;6503;48.572;13.460;2023-07-24T18:23:04;7.05;;;4.55;;
12869;SDS011;6503;48.572;13.460;2023-07-24T18:25:48;6.30;;;4.50;;
12869;SDS011;6503;48.572;13.460;2023-07-24T18:28:21;7.10;;;4.78;;
12869;SDS011;6503;48.572;13.460;2023-07-24T18:39:59;7.22;;;4.78;;
12869;SDS011;6503;48.572;13.460;2023-07-24T18:42:33;6.50;;;4.63;;
12869;SDS011;6503;48.572;13.460;2023-07-24T18:45:07;7.32;;;5.22;;
12869;SDS011;6503;48.572;13.460;2023-07-24T18:47:46;9.43;;;4.60;;
12869;SDS011;6503;48.572;13.460;2023-07-24T18:50:33;10.93;;;4.88;;
12869;SDS011;6503;48.572;13.460;2023-07-24T18:53:00;8.05;;;4.82;;
12869;SDS011;6503;48.572;13.460;2023-07-24T19:01:14;8.15;;;5.43;;
12869;SDS011;6503;48.572;13.460;2023-07-24T19:04:07;7.60;;;4.70;;
12869;SDS011;6503;48.572;13.460;2023-07-24T19:09:43;9.32;;;4.50;;
12869;SDS011;6503;48.572;13.460;2023-07-24T19:20:49;6.47;;;4.50;;
12869;SDS011;6503;48.572;13.460;2023-07-24T19:23:31;9.27;;;6.82;;
12869;SDS011;6503;48.572;13.460;2023-07-24T19:26:20;8.90;;;5.15;;
12869;SDS011;6503;48.572;13.460;2023-07-24T19:28:48;7.75;;;5.22;;
12869;SDS011;6503;48.572;13.460;2023-07-24T19:31:36;7.70;;;4.93;;
12869;SDS011;6503;48.572;13.460;2023-07-24T19:34:25;9.30;;;6.10;;
12869;SDS011;6503;48.572;13.460;2023-07-24T19:36:54;10.52;;;5.32;;
12869;SDS011;6503;48.572;13.460;2023-07-24T19:39:27;7.47;;;5.07;;
12869;SDS011;6503;48.572;13.460;2023-07-24T19:42:14;8.02;;;5.40;;
12869;SDS011;6503;48.572;13.460;2023-07-24T19:44:42;6.68;;;5.03;;
12869;SDS011;6503;48.572;13.460;2023-07-24T19:47:21;9.88;;;5.65;;
12869;SDS011;6503;48.572;13.460;2023-07-24T19:52:26;9.85;;;5.93;;
12869;SDS011;6503;48.572;13.460;2023-07-24T19:54:55;8.45;;;5.25;;
12869;SDS011;6503;48.572;13.460;2023-07-24T19:57:23;9.52;;;5.53;;
12869;SDS011;6503;48.572;13.460;2023-07-24T19:59:51;9.38;;;5.57;;
12869;SDS011;6503;48.572;13.460;2023-07-24T20:02:33;9.73;;;5.30;;
12869;SDS011;6503;48.572;13.460;2023-07-24T20:08:16;8.82;;;5.53;;
12869;SDS011;6503;48.572;13.460;2023-07-24T20:10:47;6.85;;;5.13;;
12869;SDS011;6503;48.572;13.460;2023-07-24T20:13:31;8.25;;;4.75;;
12869;SDS011;6503;48.572;13.460;2023-07-24T20:15:59;7.28;;;4.90;;
12869;SDS011;6503;48.572;13.460;2023-07-24T20:18:26;7.57;;;5.18;;
12869;SDS011;6503;48.572;13.460;2023-07-24T20:20:54;8.40;;;4.47;;
12869;SDS011;6503;48.572;13.460;2023-07-24T20:23:39;8.45;;;4.95;;
12869;SDS011;6503;48.572;13.460;2023-07-24T20:26:07;8.93;;;4.90;;
12869;SDS011;6503;48.572;13.460;2023-07-24T20:28:36;8.32;;;5.70;;
12869;SDS011;6503;48.572;13.460;2023-07-24T20:31:03;8.77;;;4.63;;
12869;SDS011;6503;48.572;13.460;2023-07-24T20:33:33;7.53;;;4.85;;
12869;SDS011;6503;48.572;13.460;2023-07-24T20:36:04;6.95;;;4.25;;
12869;SDS011;6503;48.572;13.460;2023-07-24T20:38:31;6.28;;;4.25;;
12869;SDS011;6503;48.572;13.460;2023-07-24T20:41:01;6.45;;;4.38;;
12869;SDS011;6503;48.572;13.460;2023-07-24T20:43:28;5.72;;;4.22;;
12869;SDS011;6503;48.572;13.460;2023-07-24T20:46:06;8.00;;;4.90;;
12869;SDS011;6503;48.572;13.460;2023-07-24T20:48:40;8.02;;;4.32;;
12869;SDS011;6503;48.572;13.460;2023-07-24T20:51:15;5.78;;;3.92;;
12869;SDS011;6503;48.572;13.460;2023-07-24T20:53:42;6.47;;;4.88;;
12869;SDS011;6503;48.572;13.460;2023-07-24T20:56:14;6.40;;;4.15;;
12869;SDS011;6503;48.572;13.460;2023-07-24T20:58:43;5.78;;;4.13;;
12869;SDS011;6503;48.572;13.460;2023-07-24T21:01:10;8.63;;;4.88;;
12869;SDS011;6503;48.572;13.460;2023-07-24T21:06:39;7.03;;;4.80;;
12869;SDS011;6503;48.572;13.460;2023-07-24T21:09:19;6.47;;;4.43;;
12869;SDS011;6503;48.572;13.460;2023-07-24T21:11:48;8.73;;;4.68;;
12869;SDS011;6503;48.572;13.460;2023-07-24T21:14:16;7.55;;;4.63;;
12869;SDS011;6503;48.572;13.460;2023-07-24T21:16:44;7.07;;;4.60;;
12869;SDS011;6503;48.572;13.460;2023-07-24T21:19:30;6.78;;;4.75;;
12869;SDS011;6503;48.572;13.460;2023-07-24T21:22:11;7.28;;;5.05;;
12869;SDS011;6503;48.572;13.460;2023-07-24T21:24:39;8.10;;;5.10;;
12869;SDS011;6503;48.572;13.460;2023-07-24T21:27:09;8.68;;;4.82;;
12869;SDS011;6503;48.572;13.460;2023-07-24T21:29:38;6.78;;;4.90;;
12869;SDS011;6503;48.572;13.460;2023-07-24T21:32:19;7.25;;;4.80;;
12869;SDS011;6503;48.572;13.460;2023-07-24T21:34:47;8.82;;;5.50;;
12869;SDS011;6503;48.572;13.460;2023-07-24T21:37:14;6.60;;;4.70;;
12869;SDS011;6503;48.572;13.460;2023-07-24T21:39:43;8.13;;;4.88;;
12869;SDS011;6503;48.572;13.460;2023-07-24T21:42:13;8.27;;;5.25;;
12869;SDS011;6503;48.572;13.460;2023-07-24T21:44:40;6.50;;;4.50;;
12869;SDS011;6503;48.572;13.460;2023-07-24T21:47:07;8.10;;;4.80;;
12869;SDS011;6503;48.572;13.460;2023-07-24T21:49:35;6.35;;;4.30;;
12869;SDS011;6503;48.572;13.460;2023-07-24T21:52:05;8.73;;;4.38;;
12869;SDS011;6503;48.572;13.460;2023-07-24T21:54:32;6.20;;;4.50;;
12869;SDS011;6503;48.572;13.460;2023-07-24T21:57:00;8.18;;;4.97;;
12869;SDS011;6503;48.572;13.460;2023-07-24T21:59:29;7.88;;;4.40;;
12869;SDS011;6503;48.572;13.460;2023-07-24T22:01:57;6.13;;;4.38;;
12869;SDS011;6503;48.572;13.460;2023-07-24T22:04:24;6.20;;;4.25;;
12869;SDS011;6503;48.572;13.460;2023-07-24T22:06:52;9.48;;;5.07;;
12869;SDS011;6503;48.572;13.460;2023-07-24T22:09:19;6.72;;;4.50;;
12869;SDS011;6503;48.572;13.460;2023-07-24T22:11:47;6.78;;;4.25;;
12869;SDS011;6503;48.572;13.460;2023-07-24T22:14:14;6.38;;;4.68;;
12869;SDS011;6503;48.572;13.460;2023-07-24T22:16:43;8.15;;;5.30;;
12869;SDS011;6503;48.572;13.460;2023-07-24T22:19:11;7.00;;;4.65;;
12869;SDS011;6503;48.572;13.460;2023-07-24T22:21:39;7.68;;;4.88;;
12869;SDS011;6503;48.572;13.460;2023-07-24T22:24:07;5.28;;;4.20;;
12869;SDS011;6503;48.572;13.460;2023-07-24T22:26:34;7.47;;;4.78;;
12869;SDS011;6503;48.572;13.460;2023-07-24T22:29:02;7.43;;;4.38;;
12869;SDS011;6503;48.572;13.460;2023-07-24T22:31:29;7.10;;;4.45;;
12869;SDS011;6503;48.572;13.460;2023-07-24T22:34:04;7.70;;;4.60;;